Time;durP1;ratioP1;P1;durP2;ratioP2;P2;SDS_P1;SDS_P2;PMS_P1;PMS_P2;Temp;Humidity;BMP_temperature;BMP_pressure;BME280_temperature;BME280_humidity;BME280_pressure;Samples;Min_cycle;Max_cycle;Signal;HPM_P1;HPM_P2
2023/07/26 00:00:31;;;;;;;8.10;3.58;;;;;;;;;;5056058;28;20070;-78
2023/07/26 00:02:57;;;;;;;7.60;3.47;;;;;;;;;;5054419;28;20048;-78
2023/07/26 00:05:23;;;;;;;11.02;3.75;;;;;;;;;;5053603;28;20044;-78
2023/07/26 00:07:49;;;;;;;6.60;3.45;;;;;;;;;;5055851;28;20049;-78
2023/07/26 00:10:15;;;;;;;10.32;3.72;;;;;;;;;;5055226;28;20102;-77
2023/07/26 00:12:42;;;;;;;7.65;3.40;;;;;;;;;;5055618;28;20102;-78
2023/07/26 00:15:08;;;;;;;9.50;3.67;;;;;;;;;;5055967;28;20045;-78
2023/07/26 00:17:34;;;;;;;7.45;3.75;;;;;;;;;;5055685;28;20056;-78
2023/07/26 00:20:00;;;;;;;7.57;3.53;;;;;;;;;;5054263;28;20096;-78
2023/07/26 00:22:26;;;;;;;8.07;3.75;;;;;;;;;;5055180;28;20075;-77
2023/07/26 00:24:54;;;;;;;9.75;3.70;;;;;;;;;;5020952;28;20114;-77
2023/07/26 00:27:20;;;;;;;8.23;3.60;;;;;;;;;;5037238;28;20040;-77
2023/07/26 00:29:46;;;;;;;9.63;3.45;;;;;;;;;;5054303;28;20044;-78
2023/07/26 00:32:12;;;;;;;7.20;3.40;;;;;;;;;;5054078;28;20084;-78
2023/07/26 00:34:38;;;;;;;8.73;3.70;;;;;;;;;;5055084;28;20055;-78
2023/07/26 00:37:05;;;;;;;7.95;3.65;;;;;;;;;;5048250;28;20045;-77
2023/07/26 00:39:31;;;;;;;8.43;3.70;;;;;;;;;;5035250;28;20057;-78
2023/07/26 00:41:57;;;;;;;7.28;3.50;;;;;;;;;;5034899;28;20076;-78
2023/07/26 00:44:23;;;;;;;7.65;3.35;;;;;;;;;;5034639;28;20052;-77
2023/07/26 00:46:50;;;;;;;7.15;3.60;;;;;;;;;;5043078;28;20056;-78
2023/07/26 00:49:16;;;;;;;7.20;3.63;;;;;;;;;;5054723;28;20076;-77
2023/07/26 00:51:42;;;;;;;8.60;4.00;;;;;;;;;;5054417;28;20041;-78
2023/07/26 00:54:09;;;;;;;7.13;3.55;;;;;;;;;;5053570;28;20407;-78
2023/07/26 00:56:35;;;;;;;7.93;3.40;;;;;;;;;;5054397;28;20048;-78
2023/07/26 00:59:01;;;;;;;7.68;3.63;;;;;;;;;;5054626;28;20041;-78
2023/07/26 01:01:27;;;;;;;7.68;3.45;;;;;;;;;;5054170;28;20071;-78
2023/07/26 01:03:54;;;;;;;8.40;3.55;;;;;;;;;;5053014;28;20551;-78
2023/07/26 01:06:28;;;;;;;8.10;3.85;;;;;;;;;;5052503;28;20044;-78
2023/07/26 01:09:07;;;;;;;8.60;3.70;;;;;;;;;;5053643;28;20037;-78
2023/07/26 01:11:39;;;;;;;8.18;4.07;;;;;;;;;;5055132;28;20411;-77
2023/07/26 01:14:17;;;;;;;8.07;4.03;;;;;;;;;;5054437;28;20128;-77
2023/07/26 01:16:44;;;;;;;9.10;4.40;;;;;;;;;;5054431;28;20077;-77
2023/07/26 01:19:10;;;;;;;10.10;4.05;;;;;;;;;;5054358;28;20068;-77
2023/07/26 01:21:36;;;;;;;9.07;4.20;;;;;;;;;;5054217;28;20045;-78
2023/07/26 01:24:02;;;;;;;7.93;3.63;;;;;;;;;;5052681;28;20498;-78
2023/07/26 01:26:28;;;;;;;7.82;3.83;;;;;;;;;;5053765;28;20487;-78
2023/07/26 01:28:54;;;;;;;7.50;4.47;;;;;;;;;;5054627;28;20123;-77
2023/07/26 01:31:22;;;;;;;7.10;4.30;;;;;;;;;;5037079;28;20060;-77
2023/07/26 01:33:51;;;;;;;9.02;4.20;;;;;;;;;;5054459;28;20406;-77
2023/07/26 01:36:17;;;;;;;11.10;4.35;;;;;;;;;;5037213;28;20503;-76
2023/07/26 01:38:44;;;;;;;11.65;4.57;;;;;;;;;;5058466;28;20088;-78
2023/07/26 01:41:11;;;;;;;10.18;4.82;;;;;;;;;;5058627;28;20045;-77
2023/07/26 01:43:37;;;;;;;7.03;4.25;;;;;;;;;;5058057;28;20394;-78
2023/07/26 01:46:03;;;;;;;7.25;4.20;;;;;;;;;;5057782;28;20061;-78
2023/07/26 01:48:29;;;;;;;8.23;4.32;;;;;;;;;;5058022;28;20132;-78
2023/07/26 01:50:56;;;;;;;10.75;4.22;;;;;;;;;;5057232;28;20040;-77
2023/07/26 01:53:22;;;;;;;7.60;4.03;;;;;;;;;;5058412;28;20041;-79
2023/07/26 01:55:48;;;;;;;7.35;3.70;;;;;;;;;;5056403;28;20049;-78
2023/07/26 01:58:14;;;;;;;7.82;3.88;;;;;;;;;;5040300;28;20442;-77
2023/07/26 02:00:40;;;;;;;7.90;4.00;;;;;;;;;;5057952;28;20068;-77
2023/07/26 02:03:06;;;;;;;8.68;3.92;;;;;;;;;;5039459;28;20107;-77
2023/07/26 02:05:32;;;;;;;8.15;4.13;;;;;;;;;;5057586;28;20049;-78
2023/07/26 02:07:58;;;;;;;6.25;3.72;;;;;;;;;;5056097;28;20113;-77
2023/07/26 02:10:24;;;;;;;8.18;4.75;;;;;;;;;;5057587;28;20445;-78
2023/07/26 02:12:50;;;;;;;10.13;4.15;;;;;;;;;;5057897;28;20045;-78
2023/07/26 02:15:16;;;;;;;8.05;3.83;;;;;;;;;;5057637;28;20045;-78
2023/07/26 02:17:42;;;;;;;9.52;3.97;;;;;;;;;;5057905;28;20045;-78
2023/07/26 02:20:09;;;;;;;7.93;3.75;;;;;;;;;;5022008;28;20453;-78
2023/07/26 02:22:35;;;;;;;8.73;3.80;;;;;;;;;;5039690;28;20061;-77
2023/07/26 02:25:02;;;;;;;6.70;4.05;;;;;;;;;;5056201;28;20098;-78
2023/07/26 02:27:28;;;;;;;7.32;4.03;;;;;;;;;;5057278;28;20068;-78
2023/07/26 02:29:54;;;;;;;8.10;4.00;;;;;;;;;;5057551;28;20051;-78
2023/07/26 02:32:20;;;;;;;8.13;4.00;;;;;;;;;;5056048;28;20041;-78
2023/07/26 02:34:46;;;;;;;8.75;3.83;;;;;;;;;;5047755;28;20045;-79
2023/07/26 02:37:12;;;;;;;7.70;3.88;;;;;;;;;;5057125;28;20048;-77
2023/07/26 02:39:38;;;;;;;8.35;4.05;;;;;;;;;;5057595;28;20057;-77
2023/07/26 02:42:04;;;;;;;8.88;4.45;;;;;;;;;;5057373;28;20049;-78
2023/07/26 02:44:30;;;;;;;8.13;3.92;;;;;;;;;;5057507;28;20053;-78
2023/07/26 02:46:56;;;;;;;8.27;4.07;;;;;;;;;;5056934;28;20403;-78
2023/07/26 02:49:22;;;;;;;7.18;3.83;;;;;;;;;;5056898;28;20044;-77
2023/07/26 02:51:48;;;;;;;6.40;3.47;;;;;;;;;;5055409;28;20424;-78
2023/07/26 02:54:15;;;;;;;8.90;3.85;;;;;;;;;;5037338;28;20403;-78
2023/07/26 02:56:41;;;;;;;8.68;3.92;;;;;;;;;;5037830;28;20056;-78
2023/07/26 02:59:07;;;;;;;8.57;3.70;;;;;;;;;;5055771;28;20052;-78
2023/07/26 03:01:33;;;;;;;8.15;4.40;;;;;;;;;;5056183;28;20037;-78
2023/07/26 03:03:59;;;;;;;8.27;4.38;;;;;;;;;;5056494;28;20047;-78
2023/07/26 03:06:26;;;;;;;7.93;4.00;;;;;;;;;;5055051;28;20045;-78
2023/07/26 03:08:53;;;;;;;7.75;4.18;;;;;;;;;;5040765;28;20084;-78
2023/07/26 03:11:19;;;;;;;8.13;4.20;;;;;;;;;;5035404;28;20048;-78
2023/07/26 03:13:46;;;;;;;7.55;4.50;;;;;;;;;;5036638;28;20046;-77
2023/07/26 03:16:15;;;;;;;7.38;4.38;;;;;;;;;;5037095;28;20042;-79
2023/07/26 03:18:41;;;;;;;7.75;4.22;;;;;;;;;;5036380;28;20049;-77
2023/07/26 03:21:07;;;;;;;8.38;4.35;;;;;;;;;;5036997;28;20052;-78
2023/07/26 03:23:34;;;;;;;8.07;3.92;;;;;;;;;;5049613;28;20051;-78
2023/07/26 03:26:00;;;;;;;9.75;4.43;;;;;;;;;;5055700;28;20060;-78
2023/07/26 03:28:27;;;;;;;8.85;4.32;;;;;;;;;;5035637;28;20045;-78
2023/07/26 03:30:53;;;;;;;10.10;4.45;;;;;;;;;;5055248;28;20097;-78
2023/07/26 03:33:19;;;;;;;7.60;4.15;;;;;;;;;;5056418;28;20048;-78
2023/07/26 03:35:45;;;;;;;7.68;4.15;;;;;;;;;;5055608;28;20447;-77
2023/07/26 03:38:12;;;;;;;9.35;4.60;;;;;;;;;;5055633;28;20041;-78
2023/07/26 03:40:40;;;;;;;7.10;4.60;;;;;;;;;;5054521;28;20072;-77
2023/07/26 03:43:06;;;;;;;12.57;4.18;;;;;;;;;;5055569;28;20107;-78
2023/07/26 03:45:33;;;;;;;7.32;4.60;;;;;;;;;;5053824;28;20063;-78
2023/07/26 03:47:59;;;;;;;8.88;4.85;;;;;;;;;;5054139;28;20098;-78
2023/07/26 03:50:25;;;;;;;8.10;4.68;;;;;;;;;;5054650;28;20041;-77
2023/07/26 03:52:52;;;;;;;8.07;4.43;;;;;;;;;;5054591;28;20052;-78
2023/07/26 03:55:18;;;;;;;8.13;4.70;;;;;;;;;;5054695;28;20106;-78
2023/07/26 03:57:44;;;;;;;8.15;4.55;;;;;;;;;;5054436;28;20068;-78
2023/07/26 04:00:10;;;;;;;12.30;4.85;;;;;;;;;;5036757;28;20044;-78
2023/07/26 04:02:37;;;;;;;8.77;4.72;;;;;;;;;;5054721;28;20495;-77
2023/07/26 04:05:03;;;;;;;7.97;4.57;;;;;;;;;;5054778;28;20053;-77
2023/07/26 04:07:29;;;;;;;8.10;5.15;;;;;;;;;;5036546;28;20049;-77
2023/07/26 04:09:55;;;;;;;7.78;4.72;;;;;;;;;;5054435;28;20049;-78
2023/07/26 04:12:21;;;;;;;10.07;5.35;;;;;;;;;;5055046;28;20049;-77
2023/07/26 04:14:47;;;;;;;10.02;5.63;;;;;;;;;;5052468;28;20495;-77
2023/07/26 04:17:13;;;;;;;10.93;5.20;;;;;;;;;;5054260;28;20041;-78
2023/07/26 04:19:39;;;;;;;9.13;4.90;;;;;;;;;;5055055;28;20055;-78
2023/07/26 04:22:05;;;;;;;8.02;4.80;;;;;;;;;;5037154;28;20044;-78
2023/07/26 04:24:31;;;;;;;8.23;5.18;;;;;;;;;;5054854;28;20053;-77
2023/07/26 04:26:57;;;;;;;7.32;5.15;;;;;;;;;;5054373;28;20059;-78
2023/07/26 04:29:23;;;;;;;8.45;4.70;;;;;;;;;;5053824;28;20053;-78
2023/07/26 04:31:50;;;;;;;8.10;4.68;;;;;;;;;;5036694;28;20058;-78
2023/07/26 04:34:16;;;;;;;8.40;4.50;;;;;;;;;;5036340;28;20399;-78
2023/07/26 04:36:42;;;;;;;9.77;3.97;;;;;;;;;;5054125;28;20121;-77
2023/07/26 04:39:08;;;;;;;7.68;4.60;;;;;;;;;;5053250;28;20444;-78
2023/07/26 04:41:34;;;;;;;7.38;4.53;;;;;;;;;;5054254;28;20083;-78
2023/07/26 04:44:00;;;;;;;9.48;4.60;;;;;;;;;;5053944;28;20052;-78
2023/07/26 04:46:26;;;;;;;7.30;4.50;;;;;;;;;;5053454;28;20056;-79
2023/07/26 04:48:52;;;;;;;6.72;4.15;;;;;;;;;;5053431;28;20087;-78
2023/07/26 04:51:18;;;;;;;6.63;4.00;;;;;;;;;;5037792;28;20072;-78
2023/07/26 04:53:44;;;;;;;7.80;4.38;;;;;;;;;;5033741;28;20050;-78
2023/07/26 04:56:15;;;;;;;6.78;3.97;;;;;;;;;;5034106;28;20415;-78
2023/07/26 04:58:41;;;;;;;8.82;4.82;;;;;;;;;;5050006;28;20098;-78
2023/07/26 05:01:07;;;;;;;9.18;4.68;;;;;;;;;;5054636;28;20049;-78
2023/07/26 05:03:34;;;;;;;7.82;4.35;;;;;;;;;;5047721;28;20052;-78
2023/07/26 05:06:00;;;;;;;7.55;4.40;;;;;;;;;;5050327;28;20045;-78
2023/07/26 05:08:26;;;;;;;9.23;4.35;;;;;;;;;;5045992;28;20060;-78
2023/07/26 05:10:52;;;;;;;8.38;4.50;;;;;;;;;;5044597;28;20048;-78
2023/07/26 05:13:19;;;;;;;8.00;4.75;;;;;;;;;;5058354;28;20080;-78
2023/07/26 05:15:45;;;;;;;6.90;3.83;;;;;;;;;;5040558;28;20132;-79
2023/07/26 05:18:14;;;;;;;7.25;3.63;;;;;;;;;;5058414;28;20048;-78
2023/07/26 05:20:40;;;;;;;9.02;4.25;;;;;;;;;;5058805;28;20511;-79
2023/07/26 05:23:06;;;;;;;8.23;3.90;;;;;;;;;;5058901;28;20041;-78
2023/07/26 05:25:32;;;;;;;7.78;4.22;;;;;;;;;;5039946;28;20513;-79
2023/07/26 05:27:59;;;;;;;7.15;3.67;;;;;;;;;;5058071;28;20041;-78
2023/07/26 05:30:26;;;;;;;7.30;4.00;;;;;;;;;;5057852;28;20049;-78
2023/07/26 05:32:52;;;;;;;6.65;3.50;;;;;;;;;;5058723;28;20045;-78
2023/07/26 05:35:18;;;;;;;8.48;4.20;;;;;;;;;;5057957;28;20495;-78
2023/07/26 05:37:44;;;;;;;6.57;4.00;;;;;;;;;;5058404;28;20053;-78
2023/07/26 05:40:10;;;;;;;6.78;3.70;;;;;;;;;;5058058;28;20463;-78
2023/07/26 05:42:37;;;;;;;7.57;3.60;;;;;;;;;;5041718;28;20187;-78
2023/07/26 05:45:03;;;;;;;6.50;3.17;;;;;;;;;;5058084;28;20060;-77
2023/07/26 05:47:30;;;;;;;6.65;3.20;;;;;;;;;;5056828;28;20037;-78
2023/07/26 05:49:56;;;;;;;6.25;2.90;;;;;;;;;;5040730;28;20379;-78
2023/07/26 05:52:22;;;;;;;6.68;3.03;;;;;;;;;;5041189;28;20049;-78
2023/07/26 05:54:48;;;;;;;6.85;2.50;;;;;;;;;;5057642;28;20449;-79
2023/07/26 05:57:15;;;;;;;5.35;2.88;;;;;;;;;;5040785;28;20049;-78
2023/07/26 05:59:41;;;;;;;5.03;2.42;;;;;;;;;;5058014;28;20055;-78
2023/07/26 06:02:07;;;;;;;5.95;2.45;;;;;;;;;;5059061;28;20079;-78
2023/07/26 06:04:34;;;;;;;7.50;2.70;;;;;;;;;;5057613;28;20128;-78
2023/07/26 06:07:00;;;;;;;5.40;2.50;;;;;;;;;;5043201;28;20387;-78
2023/07/26 06:09:26;;;;;;;9.10;2.60;;;;;;;;;;5037962;28;20053;-78
2023/07/26 06:11:52;;;;;;;5.93;2.88;;;;;;;;;;5036295;28;20325;-78
2023/07/26 06:14:18;;;;;;;5.75;2.47;;;;;;;;;;5037003;28;20045;-77
2023/07/26 06:16:44;;;;;;;6.93;2.72;;;;;;;;;;5037243;28;20404;-78
2023/07/26 06:19:10;;;;;;;5.93;2.85;;;;;;;;;;5040229;28;20442;-79
2023/07/26 06:21:36;;;;;;;6.10;3.03;;;;;;;;;;5048670;28;20053;-78
2023/07/26 06:24:02;;;;;;;4.93;2.70;;;;;;;;;;5048992;28;20041;-77
2023/07/26 06:26:28;;;;;;;6.45;2.72;;;;;;;;;;5046116;28;20484;-77
2023/07/26 06:28:54;;;;;;;9.05;3.30;;;;;;;;;;5046428;28;20041;-78
2023/07/26 06:31:21;;;;;;;9.95;3.40;;;;;;;;;;5047355;28;20041;-78
2023/07/26 06:33:47;;;;;;;6.60;3.17;;;;;;;;;;5056448;28;20052;-78
2023/07/26 06:36:13;;;;;;;7.78;3.63;;;;;;;;;;5056794;28;20410;-77
2023/07/26 06:38:39;;;;;;;7.82;3.25;;;;;;;;;;5055303;28;20041;-78
2023/07/26 06:41:05;;;;;;;6.75;3.80;;;;;;;;;;5042772;28;20048;-78
2023/07/26 06:43:31;;;;;;;7.15;3.42;;;;;;;;;;5053171;28;20109;-78
2023/07/26 06:45:57;;;;;;;5.90;3.60;;;;;;;;;;5056255;28;20111;-77
2023/07/26 06:48:23;;;;;;;7.57;3.63;;;;;;;;;;5055678;28;20101;-78
2023/07/26 06:50:49;;;;;;;8.02;4.40;;;;;;;;;;5046608;28;20487;-77
2023/07/26 06:53:15;;;;;;;6.85;4.30;;;;;;;;;;5051299;28;20049;-77
2023/07/26 06:55:41;;;;;;;6.78;4.35;;;;;;;;;;5036621;28;20067;-77
2023/07/26 06:58:08;;;;;;;7.82;4.30;;;;;;;;;;5036187;28;20049;-79
2023/07/26 07:00:35;;;;;;;7.63;4.03;;;;;;;;;;5036621;28;20107;-78
2023/07/26 07:03:02;;;;;;;6.38;4.07;;;;;;;;;;5043498;28;20491;-77
2023/07/26 07:05:28;;;;;;;7.10;3.60;;;;;;;;;;5054644;28;20422;-77
2023/07/26 07:07:55;;;;;;;8.20;4.00;;;;;;;;;;5056423;28;20060;-77
2023/07/26 07:10:21;;;;;;;10.15;4.18;;;;;;;;;;5054897;28;20041;-77
2023/07/26 07:12:47;;;;;;;7.60;3.58;;;;;;;;;;5056201;28;20049;-78
2023/07/26 07:15:14;;;;;;;7.30;3.75;;;;;;;;;;5055361;28;20106;-78
2023/07/26 07:17:40;;;;;;;8.43;3.63;;;;;;;;;;5055655;28;20047;-78
2023/07/26 07:20:10;;;;;;;7.55;3.80;;;;;;;;;;5054917;28;20044;-77
2023/07/26 07:22:36;;;;;;;7.20;3.53;;;;;;;;;;5054430;28;20102;-78
2023/07/26 07:25:03;;;;;;;6.93;3.80;;;;;;;;;;5053863;28;20041;-78
2023/07/26 07:27:29;;;;;;;6.55;3.75;;;;;;;;;;5043420;28;20480;-77
2023/07/26 07:29:55;;;;;;;7.30;3.70;;;;;;;;;;5035309;28;20531;-78
2023/07/26 07:32:21;;;;;;;6.55;4.10;;;;;;;;;;5034497;28;20053;-78
2023/07/26 07:34:48;;;;;;;7.07;3.90;;;;;;;;;;5035013;28;20566;-79
2023/07/26 07:37:14;;;;;;;7.32;4.03;;;;;;;;;;5052174;28;20187;-79
2023/07/26 07:39:40;;;;;;;7.47;4.22;;;;;;;;;;5035943;28;20072;-78
2023/07/26 07:42:06;;;;;;;8.55;4.88;;;;;;;;;;5051533;28;20051;-77
2023/07/26 07:44:32;;;;;;;6.90;4.72;;;;;;;;;;5035658;28;20049;-78
2023/07/26 07:46:58;;;;;;;8.45;5.30;;;;;;;;;;5050539;28;20049;-77
2023/07/26 07:49:24;;;;;;;7.55;5.15;;;;;;;;;;5053946;28;20094;-78
2023/07/26 07:51:50;;;;;;;7.20;4.97;;;;;;;;;;5054323;28;20044;-77
2023/07/26 07:54:17;;;;;;;8.45;4.82;;;;;;;;;;5054141;28;20041;-78
2023/07/26 07:56:45;;;;;;;10.73;6.13;;;;;;;;;;5035935;28;20119;-78
2023/07/26 07:59:11;;;;;;;9.07;5.38;;;;;;;;;;5036247;28;20131;-77
2023/07/26 08:01:37;;;;;;;8.13;5.40;;;;;;;;;;5053361;28;20045;-78
2023/07/26 08:04:03;;;;;;;10.27;5.60;;;;;;;;;;5034947;28;20102;-78
2023/07/26 08:06:30;;;;;;;10.10;6.20;;;;;;;;;;5035184;28;20037;-78
2023/07/26 08:08:56;;;;;;;10.32;5.72;;;;;;;;;;5033413;28;20461;-78
2023/07/26 08:11:22;;;;;;;10.32;5.20;;;;;;;;;;5033292;28;20041;-78
2023/07/26 08:13:49;;;;;;;8.25;5.07;;;;;;;;;;5033108;28;20045;-78
2023/07/26 08:16:15;;;;;;;7.32;3.95;;;;;;;;;;5036018;28;20037;-78
2023/07/26 08:18:41;;;;;;;6.72;2.92;;;;;;;;;;5052875;28;20037;-78
2023/07/26 08:21:07;;;;;;;4.93;3.05;;;;;;;;;;5052515;28;20045;-78
2023/07/26 08:23:33;;;;;;;5.35;2.55;;;;;;;;;;5035334;28;20049;-78
2023/07/26 08:26:06;;;;;;;4.40;2.05;;;;;;;;;;5052507;28;20578;-78
2023/07/26 08:28:32;;;;;;;8.80;2.50;;;;;;;;;;5052763;28;20060;-77
2023/07/26 08:30:59;;;;;;;5.07;2.00;;;;;;;;;;5051912;28;20049;-77
2023/07/26 08:33:25;;;;;;;3.53;1.35;;;;;;;;;;5051143;28;20041;-78
2023/07/26 08:35:51;;;;;;;2.20;1.05;;;;;;;;;;5052211;28;20044;-78
2023/07/26 08:38:20;;;;;;;4.70;1.30;;;;;;;;;;5052559;28;20056;-77
2023/07/26 08:40:47;;;;;;;4.95;1.60;;;;;;;;;;5051142;28;20051;-78
2023/07/26 08:43:14;;;;;;;4.45;2.15;;;;;;;;;;5052059;28;20053;-77
2023/07/26 08:45:44;;;;;;;4.40;2.30;;;;;;;;;;5052193;28;20057;-77
2023/07/26 08:48:10;;;;;;;6.10;2.45;;;;;;;;;;5052601;28;20124;-77
2023/07/26 08:50:39;;;;;;;4.93;2.58;;;;;;;;;;5034932;28;20492;-77
2023/07/26 08:53:06;;;;;;;5.70;2.63;;;;;;;;;;5052790;28;20072;-77
2023/07/26 08:55:33;;;;;;;6.22;2.55;;;;;;;;;;5052238;28;20036;-77
2023/07/26 08:57:59;;;;;;;6.35;2.70;;;;;;;;;;5052594;28;20041;-77
2023/07/26 09:00:26;;;;;;;6.80;3.15;;;;;;;;;;5052648;28;20403;-78
2023/07/26 09:02:55;;;;;;;5.80;2.67;;;;;;;;;;5051607;28;20045;-77
2023/07/26 09:05:21;;;;;;;6.20;3.30;;;;;;;;;;5051026;28;20037;-77
2023/07/26 09:07:51;;;;;;;6.80;3.47;;;;;;;;;;5033383;28;20041;-77
2023/07/26 09:10:22;;;;;;;7.57;3.65;;;;;;;;;;5032700;28;20496;-77
2023/07/26 09:12:50;;;;;;;6.90;4.38;;;;;;;;;;5032499;28;20053;-78
2023/07/26 09:15:18;;;;;;;6.45;3.58;;;;;;;;;;5032537;28;20053;-78
2023/07/26 09:17:44;;;;;;;5.35;3.10;;;;;;;;;;5032451;28;20064;-78
2023/07/26 09:20:20;;;;;;;6.70;2.95;;;;;;;;;;5033823;28;20049;-78
2023/07/26 09:22:46;;;;;;;7.28;2.88;;;;;;;;;;5051881;28;20124;-78
2023/07/26 09:25:12;;;;;;;5.78;2.72;;;;;;;;;;5051161;28;20041;-78
2023/07/26 09:27:55;;;;;;;5.70;3.03;;;;;;;;;;5050350;28;20049;-78
2023/07/26 09:30:24;;;;;;;6.88;2.72;;;;;;;;;;5051648;28;20045;-78
2023/07/26 09:32:50;;;;;;;5.88;2.63;;;;;;;;;;5052535;28;20057;-78
2023/07/26 09:35:16;;;;;;;6.10;2.67;;;;;;;;;;5052312;28;20087;-78
2023/07/26 09:37:42;;;;;;;6.93;2.72;;;;;;;;;;5052484;28;20049;-78
2023/07/26 09:40:08;;;;;;;4.75;2.30;;;;;;;;;;5051983;28;20413;-78
2023/07/26 09:42:44;;;;;;;4.55;2.40;;;;;;;;;;5034681;28;20053;-80
2023/07/26 09:45:14;;;;;;;5.15;2.63;;;;;;;;;;5051688;28;20052;-78
2023/07/26 09:47:40;;;;;;;5.97;2.40;;;;;;;;;;5032442;28;20508;-78
2023/07/26 09:50:07;;;;;;;6.95;2.70;;;;;;;;;;5049086;28;20052;-79
2023/07/26 09:52:33;;;;;;;6.10;2.50;;;;;;;;;;5031226;28;20066;-78
2023/07/26 09:55:00;;;;;;;5.00;2.60;;;;;;;;;;5031054;28;20480;-78
2023/07/26 09:57:27;;;;;;;5.40;2.53;;;;;;;;;;5036316;28;20097;-78
2023/07/26 09:59:59;;;;;;;5.53;2.33;;;;;;;;;;5044684;28;20056;-78
2023/07/26 10:02:25;;;;;;;4.70;2.15;;;;;;;;;;5056484;28;20044;-78
2023/07/26 10:04:54;;;;;;;4.60;2.58;;;;;;;;;;5056402;28;20448;-77
2023/07/26 10:07:23;;;;;;;5.30;2.50;;;;;;;;;;5056167;28;20182;-78
2023/07/26 10:09:49;;;;;;;5.68;2.42;;;;;;;;;;5038428;28;20037;-77
2023/07/26 10:12:16;;;;;;;5.05;2.58;;;;;;;;;;5055912;28;20120;-78
2023/07/26 10:14:42;;;;;;;5.20;2.80;;;;;;;;;;5055690;28;20079;-77
2023/07/26 10:17:10;;;;;;;6.13;2.78;;;;;;;;;;5055016;28;20158;-78
2023/07/26 10:19:37;;;;;;;6.32;2.70;;;;;;;;;;5055897;28;20060;-77
2023/07/26 10:22:03;;;;;;;5.20;2.65;;;;;;;;;;5036998;28;20127;-78
2023/07/26 10:24:30;;;;;;;5.72;2.42;;;;;;;;;;5036028;28;20038;-78
2023/07/26 10:26:57;;;;;;;5.28;2.50;;;;;;;;;;5036037;28;20053;-78
2023/07/26 10:29:23;;;;;;;5.80;2.63;;;;;;;;;;5036866;28;20037;-78
2023/07/26 10:32:06;;;;;;;6.97;2.63;;;;;;;;;;5037541;28;20094;-78
2023/07/26 10:34:32;;;;;;;4.93;2.70;;;;;;;;;;5054216;28;20174;-78
2023/07/26 10:36:58;;;;;;;5.97;2.90;;;;;;;;;;5036257;28;20060;-77
2023/07/26 10:39:29;;;;;;;5.93;2.60;;;;;;;;;;5035955;28;20054;-78
2023/07/26 10:41:55;;;;;;;;;;;;;;;;;;5053354;28;20053;-78
2023/07/26 10:44:22;;;;;;;4.07;2.13;;;;;;;;;;5055637;28;19932;-78
2023/07/26 10:46:49;;;;;;;4.18;1.55;;;;;;;;;;5055476;28;20445;-78
2023/07/26 10:49:16;;;;;;;7.10;1.50;;;;;;;;;;5055986;28;20041;-78
2023/07/26 10:51:57;;;;;;;4.95;2.10;;;;;;;;;;5055697;28;20053;-78
2023/07/26 10:54:33;;;;;;;5.57;2.30;;;;;;;;;;5056429;28;20128;-78
2023/07/26 10:57:10;;;;;;;6.28;2.42;;;;;;;;;;5055237;28;20045;-78
2023/07/26 10:59:49;;;;;;;5.53;2.80;;;;;;;;;;5055684;28;20049;-78
2023/07/26 11:02:16;;;;;;;6.00;2.53;;;;;;;;;;5038465;28;20391;-78
2023/07/26 11:04:45;;;;;;;6.47;2.40;;;;;;;;;;5052881;28;20041;-79
2023/07/26 11:07:12;;;;;;;5.22;2.17;;;;;;;;;;5052567;28;20045;-77
2023/07/26 11:09:38;;;;;;;5.28;2.20;;;;;;;;;;5055698;28;20044;-77
2023/07/26 11:12:11;;;;;;;6.72;2.50;;;;;;;;;;5055636;28;20044;-77
2023/07/26 11:14:37;;;;;;;5.72;2.30;;;;;;;;;;5038329;28;20052;-78
2023/07/26 11:17:10;;;;;;;4.70;1.80;;;;;;;;;;5055681;28;20070;-79
2023/07/26 11:19:46;;;;;;;4.70;1.92;;;;;;;;;;5053860;28;20163;-78
2023/07/26 11:22:12;;;;;;;5.18;1.73;;;;;;;;;;5056092;28;20045;-78
2023/07/26 11:24:38;;;;;;;6.05;1.90;;;;;;;;;;5055783;28;20044;-78
2023/07/26 11:27:05;;;;;;;5.07;2.10;;;;;;;;;;5037869;28;20048;-78
2023/07/26 11:29:32;;;;;;;4.13;1.75;;;;;;;;;;5056159;28;20066;-78
2023/07/26 11:31:58;;;;;;;5.55;2.08;;;;;;;;;;5036279;28;20041;-77
2023/07/26 11:34:24;;;;;;;4.95;1.80;;;;;;;;;;5021616;28;20372;-78
2023/07/26 11:36:50;;;;;;;5.07;2.08;;;;;;;;;;5055632;28;20063;-78
2023/07/26 11:39:20;;;;;;;4.55;2.13;;;;;;;;;;5055310;28;20045;-77
2023/07/26 11:41:46;;;;;;;5.32;2.30;;;;;;;;;;5054821;28;20036;-77
2023/07/26 11:44:14;;;;;;;6.43;2.47;;;;;;;;;;5037400;28;20045;-78
2023/07/26 11:46:43;;;;;;;3.83;1.75;;;;;;;;;;5054509;28;21509;-77
2023/07/26 11:49:10;;;;;;;5.15;1.40;;;;;;;;;;5053421;28;20458;-78
2023/07/26 11:51:36;;;;;;;2.92;1.00;;;;;;;;;;5054619;28;20052;-78
2023/07/26 11:54:02;;;;;;;3.53;0.98;;;;;;;;;;5054265;28;20053;-77
2023/07/26 11:56:30;;;;;;;2.92;1.00;;;;;;;;;;5053116;28;20060;-78
2023/07/26 11:58:58;;;;;;;2.95;0.90;;;;;;;;;;5054365;28;20120;-77
2023/07/26 12:01:24;;;;;;;2.42;0.75;;;;;;;;;;5055820;28;20040;-77
2023/07/26 12:03:51;;;;;;;2.55;0.80;;;;;;;;;;5055336;28;20056;-78
2023/07/26 12:06:19;;;;;;;2.08;0.60;;;;;;;;;;5056097;28;20045;-78
2023/07/26 12:08:47;;;;;;;1.58;0.57;;;;;;;;;;5054965;28;20513;-79
2023/07/26 12:11:17;;;;;;;0.85;0.40;;;;;;;;;;5056229;28;20049;-78
2023/07/26 12:13:45;;;;;;;1.23;0.60;;;;;;;;;;5054744;28;20479;-79
2023/07/26 12:16:11;;;;;;;1.63;0.68;;;;;;;;;;5055715;28;20044;-79
2023/07/26 12:18:48;;;;;;;1.80;0.70;;;;;;;;;;5055694;28;20052;-79
2023/07/26 12:21:15;;;;;;;2.53;0.80;;;;;;;;;;5055759;28;20045;-78
2023/07/26 12:23:51;;;;;;;1.83;0.70;;;;;;;;;;5055561;28;20558;-78
2023/07/26 12:26:18;;;;;;;2.85;0.98;;;;;;;;;;5037346;28;20047;-79
2023/07/26 12:28:44;;;;;;;3.15;1.30;;;;;;;;;;5052407;28;20060;-79
2023/07/26 12:31:23;;;;;;;4.40;1.35;;;;;;;;;;5055488;28;20107;-79
2023/07/26 12:33:55;;;;;;;5.28;1.48;;;;;;;;;;5056369;28;20059;-78
2023/07/26 12:36:22;;;;;;;5.95;1.60;;;;;;;;;;5056387;28;20056;-80
2023/07/26 12:38:48;;;;;;;4.30;1.77;;;;;;;;;;5056575;28;20045;-79
2023/07/26 12:41:15;;;;;;;5.65;1.50;;;;;;;;;;5057587;28;20132;-79
2023/07/26 12:43:41;;;;;;;4.03;1.67;;;;;;;;;;5023094;28;20037;-80
2023/07/26 12:46:07;;;;;;;5.45;1.70;;;;;;;;;;5056856;28;20048;-78
2023/07/26 12:48:35;;;;;;;3.85;1.40;;;;;;;;;;5056976;28;20053;-78
2023/07/26 12:51:01;;;;;;;5.18;1.65;;;;;;;;;;5057153;28;20507;-79
2023/07/26 12:53:27;;;;;;;4.45;1.30;;;;;;;;;;5057841;28;20051;-79
2023/07/26 12:55:53;;;;;;;4.60;1.50;;;;;;;;;;5059194;28;20085;-79
2023/07/26 12:58:20;;;;;;;3.55;1.13;;;;;;;;;;5056738;28;20052;-78
2023/07/26 13:00:47;;;;;;;4.03;0.98;;;;;;;;;;5036847;28;20049;-78
2023/07/26 13:03:14;;;;;;;2.63;1.08;;;;;;;;;;5055226;28;20057;-79
2023/07/26 13:05:40;;;;;;;3.55;1.15;;;;;;;;;;5054406;28;20550;-79
2023/07/26 13:08:06;;;;;;;3.50;1.38;;;;;;;;;;5050989;28;20052;-78
2023/07/26 13:10:32;;;;;;;4.05;1.10;;;;;;;;;;5016973;28;20515;-79
2023/07/26 13:12:58;;;;;;;3.13;1.10;;;;;;;;;;5042572;28;20091;-79
2023/07/26 13:15:24;;;;;;;3.45;1.45;;;;;;;;;;5036684;28;20052;-78
2023/07/26 13:17:51;;;;;;;3.95;1.40;;;;;;;;;;5054761;28;20132;-78
2023/07/26 13:20:17;;;;;;;4.60;1.50;;;;;;;;;;5037027;28;20122;-78
2023/07/26 13:22:43;;;;;;;6.32;2.17;;;;;;;;;;5035555;28;20049;-77
2023/07/26 13:25:10;;;;;;;3.97;1.80;;;;;;;;;;5054361;28;20049;-78
2023/07/26 13:27:36;;;;;;;4.50;1.90;;;;;;;;;;5052991;28;20068;-79
2023/07/26 13:30:03;;;;;;;4.85;1.92;;;;;;;;;;5053154;28;20045;-78
2023/07/26 13:32:29;;;;;;;4.25;1.80;;;;;;;;;;5056777;28;20041;-78
2023/07/26 13:34:56;;;;;;;5.00;2.05;;;;;;;;;;5057634;28;20052;-79
2023/07/26 13:37:22;;;;;;;5.05;2.00;;;;;;;;;;5052948;28;20048;-78
2023/07/26 13:39:48;;;;;;;4.63;2.00;;;;;;;;;;5031633;28;20483;-78
2023/07/26 13:42:14;;;;;;;4.45;1.80;;;;;;;;;;5053507;28;20041;-79
2023/07/26 13:44:40;;;;;;;5.10;1.90;;;;;;;;;;5057613;28;20506;-77
2023/07/26 13:47:06;;;;;;;5.70;1.92;;;;;;;;;;5057138;28;20132;-79
2023/07/26 13:49:32;;;;;;;9.10;2.97;;;;;;;;;;5057455;28;20048;-78
2023/07/26 13:51:58;;;;;;;6.53;2.50;;;;;;;;;;5055021;28;20602;-78
2023/07/26 13:54:24;;;;;;;5.40;1.88;;;;;;;;;;5055352;28;20467;-78
2023/07/26 13:56:50;;;;;;;5.68;2.20;;;;;;;;;;5055473;28;20098;-79
2023/07/26 13:59:17;;;;;;;6.15;2.20;;;;;;;;;;5055532;28;20053;-78
2023/07/26 14:01:43;;;;;;;5.18;2.00;;;;;;;;;;5037338;28;20033;-78
2023/07/26 14:04:09;;;;;;;4.80;1.80;;;;;;;;;;5054201;28;20045;-78
2023/07/26 14:06:35;;;;;;;4.30;2.08;;;;;;;;;;5055634;28;20045;-79
2023/07/26 14:09:01;;;;;;;4.72;2.20;;;;;;;;;;5055881;28;20049;-79
2023/07/26 14:11:27;;;;;;;5.70;2.20;;;;;;;;;;5056268;28;20075;-79
2023/07/26 14:13:56;;;;;;;6.45;2.45;;;;;;;;;;5056800;28;20045;-78
2023/07/26 14:16:22;;;;;;;6.25;2.53;;;;;;;;;;5056795;28;20513;-78
2023/07/26 14:18:48;;;;;;;6.63;2.92;;;;;;;;;;5055824;28;20043;-78
2023/07/26 14:21:14;;;;;;;6.65;2.63;;;;;;;;;;5056449;28;20076;-77
2023/07/26 14:23:40;;;;;;;6.50;2.60;;;;;;;;;;5043002;28;20034;-78
2023/07/26 14:26:06;;;;;;;6.80;2.80;;;;;;;;;;5035730;28;20488;-77
2023/07/26 14:28:32;;;;;;;5.78;2.58;;;;;;;;;;5036461;28;20053;-77
2023/07/26 14:30:58;;;;;;;6.05;2.85;;;;;;;;;;5036201;28;20092;-78
2023/07/26 14:33:25;;;;;;;6.75;2.63;;;;;;;;;;5040990;28;20151;-78
2023/07/26 14:35:51;;;;;;;5.75;2.50;;;;;;;;;;5056263;28;20045;-78
2023/07/26 14:38:17;;;;;;;6.07;2.50;;;;;;;;;;5038241;28;20090;-78
2023/07/26 14:40:43;;;;;;;6.22;2.63;;;;;;;;;;5055272;28;20059;-78